createdAt,value
2022-09-10T00:01:55.373Z,958.68
2022-09-10T00:07:27.352Z,958.68
2022-09-10T00:12:58.872Z,958.72
2022-09-10T00:18:31.042Z,958.74
2022-09-10T00:24:02.180Z,958.78
2022-09-10T00:29:33.483Z,958.78
2022-09-10T00:35:05.238Z,958.74
2022-09-10T00:40:36.499Z,958.74
2022-09-10T00:46:07.765Z,958.72
2022-09-10T00:51:39.321Z,958.66
2022-09-10T01:02:40.438Z,958.57
2022-09-10T01:08:12.181Z,958.55
2022-09-10T01:13:43.776Z,958.57
2022-09-10T01:19:15.553Z,958.51
2022-09-10T01:24:47.443Z,958.47
2022-09-10T01:35:48.458Z,958.43
2022-09-10T01:41:19.881Z,958.41
2022-09-10T01:46:51.021Z,958.37
2022-09-10T01:52:22.369Z,958.35
2022-09-10T01:57:53.819Z,958.31
2022-09-10T02:03:25.505Z,958.27
2022-09-10T02:08:57.394Z,958.23
2022-09-10T02:14:29.056Z,958.18
2022-09-10T02:20:00.771Z,958.16
2022-09-10T02:25:32.609Z,958.12
2022-09-10T02:31:04.305Z,958.10
2022-09-10T02:36:35.722Z,958.08
2022-09-10T02:42:07.464Z,958.08
2022-09-10T02:53:08.928Z,958.10
2022-09-10T02:58:40.368Z,958.06
2022-09-10T03:04:12.319Z,958.06
2022-09-10T03:09:43.660Z,958.04
2022-09-10T03:15:15.537Z,958.00
2022-09-10T03:20:46.987Z,957.98
2022-09-10T03:26:18.539Z,957.94
2022-09-10T03:31:50.124Z,957.96
2022-09-10T03:37:21.479Z,957.98
2022-09-10T03:42:55.142Z,958.02
2022-09-10T03:48:26.885Z,958.04
2022-09-10T03:53:58.474Z,958.06
2022-09-10T03:59:30.329Z,958.04
2022-09-10T04:05:01.768Z,958.04
2022-09-10T04:10:33.810Z,958.04
2022-09-10T04:16:05.476Z,958.04
2022-09-10T04:21:37.186Z,958.08
2022-09-10T04:27:09.165Z,958.08
2022-09-10T04:32:40.796Z,958.06
2022-09-10T04:38:12.610Z,958.08
2022-09-10T04:43:44.558Z,958.06
2022-09-10T04:51:36.813Z,958.14
2022-09-10T05:02:37.777Z,958.14
2022-09-10T05:08:09.484Z,958.14
2022-09-10T05:13:41.072Z,958.18
2022-09-10T05:19:12.858Z,958.19
2022-09-10T05:21:35.329Z,958.23
2022-09-10T05:27:06.973Z,958.25
2022-09-10T05:32:38.398Z,958.27
2022-09-10T05:38:11.190Z,958.27
2022-09-10T05:43:42.900Z,958.35
2022-09-10T05:49:14.545Z,958.39
2022-09-10T05:54:45.860Z,958.39
2022-09-10T06:00:17.357Z,958.43
2022-09-10T06:11:18.350Z,958.55
2022-09-10T06:16:50.163Z,958.61
2022-09-10T06:22:21.986Z,958.65
2022-09-10T06:27:53.554Z,958.70
2022-09-10T06:33:25.348Z,958.76
2022-09-10T06:38:57.287Z,958.82
2022-09-10T06:44:28.836Z,958.86
2022-09-10T06:50:00.628Z,958.90
2022-09-10T06:55:32.257Z,958.90
2022-09-10T07:01:04.332Z,958.92
2022-09-10T07:06:35.894Z,958.90
2022-09-10T07:12:07.701Z,958.92
2022-09-10T07:17:39.546Z,958.92
2022-09-10T07:23:12.850Z,958.90
2022-09-10T07:28:44.121Z,958.96
2022-09-10T07:34:15.637Z,958.98
2022-09-10T07:39:49.500Z,959.02
2022-09-10T07:45:21.486Z,959.02
2022-09-10T07:50:53.201Z,959.12
2022-09-10T08:01:54.408Z,959.16
2022-09-10T08:07:25.573Z,959.19
2022-09-10T08:18:28.798Z,959.27
2022-09-10T08:24:00.538Z,959.31
2022-09-10T08:29:31.951Z,959.37
2022-09-10T08:35:03.847Z,959.37
2022-09-10T08:40:35.627Z,959.45
2022-09-10T08:46:06.976Z,959.47
2022-09-10T08:51:38.550Z,959.51
2022-09-10T08:57:10.244Z,959.55
2022-09-10T09:02:49.847Z,959.57
2022-09-10T09:08:13.828Z,959.61
2022-09-10T09:13:45.560Z,959.61
2022-09-10T09:19:17.567Z,959.61
2022-09-10T09:24:49.434Z,959.63
2022-09-10T09:30:20.941Z,959.59
2022-09-10T09:35:52.808Z,959.57
2022-09-10T09:41:24.476Z,959.49
2022-09-10T09:46:56.060Z,959.49
2022-09-10T09:52:27.750Z,959.45
2022-09-10T09:57:59.369Z,959.37
2022-09-10T10:03:30.864Z,959.39
2022-09-10T10:09:02.206Z,959.29
2022-09-10T10:14:33.656Z,959.23
2022-09-10T10:20:05.307Z,959.27
2022-09-10T10:25:37.258Z,959.27
2022-09-10T10:31:08.770Z,959.23
2022-09-10T10:36:40.163Z,959.21
2022-09-10T10:42:11.843Z,959.16
2022-09-10T10:53:14.995Z,959.14
2022-09-10T11:04:16.358Z,959.12
2022-09-10T11:09:53.643Z,959.12
2022-09-10T11:15:25.033Z,959.04
2022-09-10T11:20:57.024Z,959.02
2022-09-10T11:26:28.309Z,959.00
2022-09-10T11:31:59.681Z,959.00
2022-09-10T11:37:31.114Z,958.94
2022-09-10T11:43:02.685Z,958.88
2022-09-10T11:48:34.422Z,958.88
2022-09-10T11:54:06.392Z,958.86
2022-09-10T11:59:38.086Z,958.86
2022-09-10T12:05:09.531Z,958.86
2022-09-10T12:10:41.077Z,958.80
2022-09-10T12:16:12.718Z,958.76
2022-09-10T12:21:44.007Z,958.70
2022-09-10T12:27:15.424Z,958.70
2022-09-10T12:32:47.451Z,958.70
2022-09-10T12:38:18.947Z,958.66
2022-09-10T12:43:50.401Z,958.65
2022-09-10T12:49:22.272Z,958.63
2022-09-10T12:54:54.076Z,958.55
2022-09-10T13:00:26.652Z,958.55
2022-09-10T13:05:58.300Z,958.53
2022-09-10T13:11:29.924Z,958.49
2022-09-10T13:17:01.632Z,958.49
2022-09-10T13:28:07.102Z,958.47
2022-09-10T13:33:38.779Z,958.49
2022-09-10T13:39:10.420Z,958.45
2022-09-10T13:44:42.484Z,958.43
2022-09-10T13:50:14.044Z,958.35
2022-09-10T13:55:45.517Z,958.27
2022-09-10T14:01:17.369Z,958.25
2022-09-10T14:06:49.060Z,958.23
2022-09-10T14:12:20.840Z,958.21
2022-09-10T14:17:52.657Z,958.18
2022-09-10T14:25:45.946Z,958.00
2022-09-10T14:31:17.485Z,958.00
2022-09-10T14:36:49.170Z,958.00
2022-09-10T14:42:20.888Z,957.98
2022-09-10T14:47:52.168Z,958.02
2022-09-10T14:53:23.443Z,958.00
2022-09-10T14:58:55.133Z,957.98
2022-09-10T15:04:26.934Z,958.04
2022-09-10T15:09:58.547Z,958.06
2022-09-10T15:15:29.917Z,958.12
2022-09-10T15:21:01.474Z,958.21
2022-09-10T15:26:32.963Z,958.33
2022-09-10T15:37:34.178Z,958.57
2022-09-10T15:43:05.866Z,958.55
2022-09-10T15:48:37.743Z,958.51
2022-09-10T15:54:09.425Z,958.53
2022-09-10T15:59:40.839Z,958.53
2022-09-10T16:05:12.477Z,958.55
2022-09-10T16:10:44.163Z,958.55
2022-09-10T16:16:16.030Z,958.51
2022-09-10T16:21:47.679Z,958.53
2022-09-10T16:27:18.889Z,958.53
2022-09-10T16:32:50.304Z,958.59
2022-09-10T16:38:21.471Z,958.59
2022-09-10T16:43:53.173Z,958.61
2022-09-10T16:49:24.716Z,958.61
2022-09-10T16:54:56.237Z,958.63
2022-09-10T17:00:28.014Z,958.59
2022-09-10T17:05:59.382Z,958.63
2022-09-10T17:11:31.014Z,958.63
2022-09-10T17:17:02.586Z,958.61
2022-09-10T17:22:33.980Z,958.65
2022-09-10T17:28:05.311Z,958.63
2022-09-10T17:33:36.942Z,958.59
2022-09-10T17:39:08.230Z,958.61
2022-09-10T17:44:39.812Z,958.57
2022-09-10T17:50:11.244Z,958.59
2022-09-10T17:55:42.865Z,958.63
2022-09-10T18:01:14.435Z,958.65
2022-09-10T18:06:50.185Z,958.70
2022-09-10T18:12:17.275Z,958.76
2022-09-10T18:17:48.846Z,958.80
2022-09-10T18:23:20.059Z,958.84
2022-09-10T18:28:51.569Z,958.90
2022-09-10T18:34:23.631Z,958.94
2022-09-10T18:39:55.238Z,958.98
2022-09-10T18:45:26.967Z,959.04
2022-09-10T18:50:59.117Z,959.16
2022-09-10T18:56:30.487Z,959.27
2022-09-10T19:02:02.009Z,959.33
2022-09-10T19:07:33.559Z,959.41
2022-09-10T19:13:04.791Z,959.45
2022-09-10T19:18:36.777Z,959.51
2022-09-10T19:24:08.509Z,959.59
2022-09-10T19:35:11.773Z,959.74
2022-09-10T19:40:43.062Z,959.72
2022-09-10T19:46:14.523Z,959.69
2022-09-10T19:51:45.978Z,959.69
2022-09-10T19:57:17.612Z,959.67
2022-09-10T20:02:49.086Z,959.61
2022-09-10T20:08:20.778Z,959.61
2022-09-10T20:13:52.325Z,959.61
2022-09-10T20:19:24.083Z,959.65
2022-09-10T20:30:24.921Z,959.69
2022-09-10T20:35:56.655Z,959.69
2022-09-10T20:41:28.514Z,959.67
2022-09-10T20:47:00.186Z,959.65
2022-09-10T20:52:31.771Z,959.69
2022-09-10T20:58:03.569Z,959.67
2022-09-10T21:03:35.143Z,959.70
2022-09-10T21:09:06.710Z,959.72
2022-09-10T21:14:38.036Z,959.72
2022-09-10T21:20:10.227Z,959.76
2022-09-10T21:25:41.816Z,959.76
2022-09-10T21:31:13.273Z,959.76
2022-09-10T21:36:44.588Z,959.78
2022-09-10T21:42:16.236Z,959.84
2022-09-10T21:47:47.668Z,959.88
2022-09-10T21:53:19.311Z,959.90
2022-09-10T21:58:50.578Z,959.92
2022-09-10T22:04:23.251Z,959.96
2022-09-10T22:09:53.680Z,959.96
2022-09-10T22:15:24.884Z,959.96
2022-09-10T22:20:56.658Z,959.94
2022-09-10T22:26:27.930Z,959.92
2022-09-10T22:31:59.424Z,959.90
2022-09-10T22:37:30.675Z,959.90
2022-09-10T22:43:02.006Z,959.88
2022-09-10T22:48:33.708Z,959.88
2022-09-10T22:54:05.229Z,959.86
2022-09-10T22:59:36.802Z,959.86
2022-09-10T23:05:08.581Z,959.86
2022-09-10T23:10:40.334Z,959.88
2022-09-10T23:16:11.731Z,959.88
2022-09-10T23:21:43.681Z,959.88
2022-09-10T23:27:14.962Z,959.88
2022-09-10T23:32:46.305Z,959.90
2022-09-10T23:38:17.985Z,959.94
2022-09-10T23:43:49.331Z,959.94
2022-09-10T23:51:33.948Z,959.86
2022-09-10T23:57:05.531Z,959.86
